createdAt,value
2022-09-12T00:03:18.358Z,11.00
2022-09-12T00:07:00.420Z,12.23
2022-09-12T00:10:44.342Z,8.73
2022-09-12T00:14:26.426Z,8.70
2022-09-12T00:18:10.532Z,9.77
2022-09-12T00:21:52.557Z,9.80
2022-09-12T00:25:34.480Z,9.13
2022-09-12T00:29:19.257Z,9.20
2022-09-12T00:33:01.221Z,10.00
2022-09-12T00:36:43.422Z,12.73
2022-09-12T00:40:25.485Z,9.23
2022-09-12T00:44:10.405Z,8.90
2022-09-12T00:47:52.486Z,10.13
2022-09-12T00:51:37.973Z,8.60
2022-09-12T00:55:31.812Z,12.73
2022-09-12T01:00:09.006Z,12.75
2022-09-12T01:03:51.080Z,12.95
2022-09-12T01:07:39.891Z,11.43
2022-09-12T01:11:22.945Z,11.63
2022-09-12T01:15:05.307Z,10.07
2022-09-12T01:19:15.259Z,10.13
2022-09-12T01:23:06.149Z,8.82
2022-09-12T01:26:57.032Z,10.35
2022-09-12T01:31:05.837Z,7.72
2022-09-12T01:35:16.870Z,6.93
2022-09-12T01:39:24.989Z,10.65
2022-09-12T01:43:20.130Z,8.52
2022-09-12T01:47:05.602Z,7.35
2022-09-12T01:51:06.584Z,7.97
2022-09-12T01:59:04.093Z,10.77
2022-09-12T02:03:04.935Z,6.22
2022-09-12T02:06:55.438Z,11.07
2022-09-12T02:11:00.651Z,8.77
2022-09-12T02:14:49.355Z,11.27
2022-09-12T02:18:34.440Z,9.93
2022-09-12T02:22:20.091Z,9.88
2022-09-12T02:26:08.269Z,8.15
2022-09-12T02:29:50.603Z,9.60
2022-09-12T02:33:50.219Z,10.32
2022-09-12T02:38:06.205Z,10.18
2022-09-12T02:41:51.910Z,9.95
2022-09-12T02:45:35.318Z,8.52
2022-09-12T02:49:17.777Z,9.07
2022-09-12T02:53:04.776Z,9.15
2022-09-12T02:56:49.927Z,9.68
2022-09-12T03:00:53.825Z,8.15
2022-09-12T03:04:47.991Z,9.57
2022-09-12T03:09:00.521Z,10.18
2022-09-12T03:13:33.371Z,9.10
2022-09-12T03:17:41.380Z,8.20
2022-09-12T03:21:31.179Z,9.18
2022-09-12T03:25:43.617Z,8.85
2022-09-12T03:29:26.978Z,8.57
2022-09-12T03:33:13.364Z,8.38
2022-09-12T03:36:55.964Z,8.50
2022-09-12T03:44:41.533Z,6.78
2022-09-12T03:48:23.502Z,8.23
2022-09-12T03:52:05.595Z,9.70
2022-09-12T03:55:47.573Z,8.32
2022-09-12T03:59:29.678Z,7.65
2022-09-12T04:03:11.701Z,7.15
2022-09-12T04:06:55.616Z,8.18
2022-09-12T04:10:37.602Z,9.40
2022-09-12T04:14:19.560Z,9.63
2022-09-12T04:18:05.734Z,8.85
2022-09-12T04:21:48.176Z,9.48
2022-09-12T04:25:31.511Z,11.63
2022-09-12T04:29:15.255Z,8.25
2022-09-12T04:32:57.223Z,10.10
2022-09-12T04:36:39.694Z,8.10
2022-09-12T04:40:21.609Z,11.68
2022-09-12T04:44:11.749Z,9.43
2022-09-12T04:47:53.700Z,8.50
2022-09-12T04:51:37.863Z,7.40
2022-09-12T04:55:21.473Z,8.27
2022-09-12T04:59:03.527Z,8.23
2022-09-12T05:02:45.497Z,8.90
2022-09-12T05:06:30.324Z,8.85
2022-09-12T05:10:12.820Z,7.50
2022-09-12T05:13:55.040Z,8.02
2022-09-12T05:17:36.960Z,6.47
2022-09-12T05:21:21.350Z,5.75
2022-09-12T05:25:03.411Z,8.10
2022-09-12T05:28:45.597Z,6.82
2022-09-12T05:32:32.355Z,8.10
2022-09-12T05:36:17.862Z,7.90
2022-09-12T05:40:00.068Z,7.32
2022-09-12T05:43:43.051Z,6.65
2022-09-12T05:47:25.041Z,8.80
2022-09-12T05:51:10.445Z,8.27
2022-09-12T05:54:52.398Z,6.07
2022-09-12T05:58:35.836Z,8.20
2022-09-12T06:02:18.339Z,5.45
2022-09-12T06:06:05.811Z,5.57
2022-09-12T06:09:47.945Z,6.45
2022-09-12T06:13:35.423Z,9.25
2022-09-12T06:17:17.675Z,7.93
2022-09-12T06:21:07.579Z,10.18
2022-09-12T06:24:49.580Z,9.60
2022-09-12T06:28:40.086Z,7.90
2022-09-12T06:32:21.990Z,8.95
2022-09-12T06:36:12.512Z,7.93
2022-09-12T06:39:56.079Z,9.98
2022-09-12T06:43:39.319Z,10.10
2022-09-12T06:47:21.301Z,7.97
2022-09-12T06:51:10.444Z,8.25
2022-09-12T06:54:52.449Z,8.70
2022-09-12T06:58:35.409Z,9.05
2022-09-12T07:02:17.402Z,6.93
2022-09-12T07:06:07.634Z,8.38
2022-09-12T07:13:33.956Z,8.10
2022-09-12T07:17:15.933Z,7.88
2022-09-12T07:21:04.107Z,7.88
2022-09-12T07:24:46.165Z,7.85
2022-09-12T07:28:31.460Z,8.50
2022-09-12T07:32:14.943Z,7.30
2022-09-12T07:36:05.408Z,8.32
2022-09-12T07:39:47.476Z,6.30
2022-09-12T07:43:29.458Z,6.55
2022-09-12T07:47:11.494Z,8.07
2022-09-12T07:51:04.930Z,7.78
2022-09-12T07:54:46.921Z,9.55
2022-09-12T07:58:30.425Z,7.18
2022-09-12T08:02:17.582Z,7.22
2022-09-12T08:06:16.831Z,8.63
2022-09-12T08:09:58.777Z,7.35
2022-09-12T08:13:42.367Z,8.18
2022-09-12T08:17:24.346Z,8.20
2022-09-12T08:21:12.979Z,10.65
2022-09-12T08:24:54.947Z,9.25
2022-09-12T08:28:37.538Z,8.32
2022-09-12T08:32:19.739Z,8.23
2022-09-12T08:36:16.072Z,7.22
2022-09-12T08:39:58.371Z,5.93
2022-09-12T08:43:56.961Z,6.72
2022-09-12T08:47:42.922Z,7.82
2022-09-12T08:51:25.730Z,6.75
2022-09-12T08:55:23.693Z,6.60
2022-09-12T08:59:05.759Z,7.90
2022-09-12T09:03:02.967Z,7.57
2022-09-12T09:07:04.155Z,5.38
2022-09-12T09:11:00.747Z,6.50
2022-09-12T09:15:15.369Z,5.60
2022-09-12T09:19:02.354Z,7.85
2022-09-12T09:22:55.415Z,5.90
2022-09-12T09:26:47.416Z,4.82
2022-09-12T09:30:30.418Z,5.38
2022-09-12T09:34:26.329Z,4.13
2022-09-12T09:38:36.031Z,4.47
2022-09-12T09:42:31.144Z,5.22
2022-09-12T09:46:14.390Z,4.97
2022-09-12T09:49:56.346Z,3.78
2022-09-12T09:53:53.246Z,3.85
2022-09-12T09:57:35.282Z,2.72
2022-09-12T10:01:19.542Z,2.15
2022-09-12T10:05:01.867Z,2.47
2022-09-12T10:08:43.876Z,3.63
2022-09-12T10:12:28.658Z,2.42
2022-09-12T10:16:35.260Z,2.53
2022-09-12T10:20:37.924Z,2.47
2022-09-12T10:24:30.903Z,1.92
2022-09-12T10:28:25.749Z,2.08
2022-09-12T10:32:09.953Z,4.25
2022-09-12T10:35:53.857Z,5.30
2022-09-12T10:39:38.802Z,2.50
2022-09-12T10:43:28.911Z,3.42
2022-09-12T10:47:22.664Z,2.38
2022-09-12T10:51:04.745Z,3.03
2022-09-12T10:54:46.875Z,1.85
2022-09-12T10:58:49.066Z,2.60
2022-09-12T11:02:43.440Z,3.60
2022-09-12T11:06:51.725Z,3.25
2022-09-12T11:15:50.248Z,2.85
2022-09-12T11:19:56.553Z,3.13
2022-09-12T11:24:17.081Z,2.53
2022-09-12T11:28:28.419Z,2.50
2022-09-12T11:32:31.386Z,2.72
2022-09-12T11:36:27.539Z,2.80
2022-09-12T11:40:41.037Z,2.20
2022-09-12T11:44:29.031Z,2.53
2022-09-12T11:48:31.486Z,1.88
2022-09-12T11:52:34.310Z,4.03
2022-09-12T11:56:18.868Z,2.10
2022-09-12T12:00:04.261Z,1.73
2022-09-12T12:03:47.779Z,2.78
2022-09-12T12:07:45.154Z,3.10
2022-09-12T12:11:35.906Z,2.25
2022-09-12T12:15:18.599Z,3.00
2022-09-12T12:19:05.512Z,2.95
2022-09-12T12:22:54.303Z,3.20
2022-09-12T12:26:39.635Z,2.75
2022-09-12T12:30:30.760Z,3.15
2022-09-12T12:34:45.148Z,3.88
2022-09-12T12:38:35.579Z,4.22
2022-09-12T12:42:36.096Z,2.67
2022-09-12T12:46:23.380Z,3.25
2022-09-12T12:50:24.021Z,3.40
2022-09-12T12:55:01.697Z,2.20
2022-09-12T12:58:43.809Z,3.33
2022-09-12T13:02:38.868Z,2.83
2022-09-12T13:06:32.840Z,3.25
2022-09-12T13:10:24.202Z,2.47
2022-09-12T13:14:34.501Z,2.30
2022-09-12T13:18:28.628Z,2.80
2022-09-12T13:22:11.152Z,4.43
2022-09-12T13:25:58.222Z,1.90
2022-09-12T13:29:40.238Z,2.92
2022-09-12T13:33:49.835Z,2.63
2022-09-12T13:37:59.747Z,4.00
2022-09-12T13:42:04.010Z,2.20
2022-09-12T13:45:47.731Z,2.83
2022-09-12T13:49:37.006Z,2.53
2022-09-12T13:53:23.627Z,2.58
2022-09-12T13:57:06.653Z,2.80
2022-09-12T14:01:02.283Z,7.82
2022-09-12T14:05:10.357Z,1.40
2022-09-12T14:08:53.311Z,1.83
2022-09-12T14:12:43.625Z,2.22
2022-09-12T14:16:29.258Z,1.90
2022-09-12T14:20:18.581Z,2.40
2022-09-12T14:24:01.870Z,2.17
2022-09-12T14:27:55.274Z,1.95
2022-09-12T14:31:39.520Z,3.47
2022-09-12T14:35:21.865Z,2.15
2022-09-12T14:39:16.971Z,2.80
2022-09-12T14:43:01.161Z,1.65
2022-09-12T14:46:44.977Z,2.70
2022-09-12T14:50:31.797Z,2.47
2022-09-12T14:54:29.339Z,3.45
2022-09-12T14:58:22.829Z,2.15
2022-09-12T15:02:14.425Z,1.40
2022-09-12T15:05:57.199Z,1.73
2022-09-12T15:09:44.065Z,2.88
2022-09-12T15:13:30.852Z,2.33
2022-09-12T15:17:12.843Z,1.98
2022-09-12T15:21:21.361Z,1.80
2022-09-12T15:25:03.845Z,2.78
2022-09-12T15:28:46.222Z,3.15
2022-09-12T15:32:30.330Z,4.03
2022-09-12T15:36:19.014Z,2.85
2022-09-12T15:40:01.564Z,2.73
2022-09-12T15:43:43.934Z,2.80
2022-09-12T15:47:26.166Z,3.05
2022-09-12T15:51:15.701Z,3.08
2022-09-12T15:54:57.948Z,2.78
2022-09-12T15:58:54.671Z,3.00
2022-09-12T16:02:40.504Z,2.65
2022-09-12T16:06:22.778Z,2.53
2022-09-12T16:10:05.274Z,3.53
2022-09-12T16:13:47.295Z,1.95
2022-09-12T16:17:29.270Z,3.65
2022-09-12T16:21:15.006Z,2.78
2022-09-12T16:24:57.436Z,3.65
2022-09-12T16:28:39.672Z,3.20
2022-09-12T16:32:22.202Z,3.35
2022-09-12T16:36:15.477Z,3.80
2022-09-12T16:39:57.700Z,5.25
2022-09-12T16:43:40.949Z,3.25
2022-09-12T16:47:23.465Z,5.10
2022-09-12T16:51:07.036Z,2.90
2022-09-12T16:54:49.132Z,3.72
2022-09-12T16:58:48.196Z,2.25
2022-09-12T17:02:30.322Z,2.17
2022-09-12T17:06:15.167Z,2.97
2022-09-12T17:09:57.254Z,2.15
2022-09-12T17:14:00.601Z,3.38
2022-09-12T17:17:42.056Z,3.22
2022-09-12T17:21:24.427Z,2.42
2022-09-12T17:25:06.685Z,2.72
2022-09-12T17:28:48.840Z,2.38
2022-09-12T17:32:30.836Z,1.80
2022-09-12T17:36:16.513Z,2.75
2022-09-12T17:39:58.890Z,2.17
2022-09-12T17:43:41.002Z,3.47
2022-09-12T17:47:23.116Z,2.35
2022-09-12T17:51:14.027Z,1.85
2022-09-12T17:54:57.520Z,4.47
2022-09-12T17:58:42.072Z,3.60
2022-09-12T18:02:24.208Z,1.88
2022-09-12T18:06:06.504Z,2.55
2022-09-12T18:09:48.726Z,2.15
2022-09-12T18:13:32.843Z,3.85
2022-09-12T18:17:14.912Z,3.47
2022-09-12T18:20:56.886Z,2.85
2022-09-12T18:24:39.869Z,3.03
2022-09-12T18:28:21.929Z,2.13
2022-09-12T18:32:03.981Z,3.78
2022-09-12T18:40:42.102Z,3.70
2022-09-12T18:44:24.281Z,2.40
2022-09-12T18:48:06.425Z,3.17
2022-09-12T18:51:48.402Z,2.55
2022-09-12T18:55:33.841Z,3.10
2022-09-12T18:59:15.978Z,4.85
2022-09-12T19:02:57.984Z,3.72
2022-09-12T19:06:42.801Z,2.92
2022-09-12T19:10:24.825Z,2.03
2022-09-12T19:14:07.950Z,4.63
2022-09-12T19:17:49.933Z,4.07
2022-09-12T19:21:33.609Z,4.40
2022-09-12T19:25:15.666Z,3.30
2022-09-12T19:28:57.719Z,3.90
2022-09-12T19:32:39.789Z,4.70
2022-09-12T19:36:44.428Z,5.32
2022-09-12T19:40:28.093Z,4.47
2022-09-12T19:44:10.193Z,4.18
2022-09-12T19:47:52.142Z,2.97
2022-09-12T19:51:34.189Z,5.82
2022-09-12T19:55:16.273Z,3.80
2022-09-12T19:58:58.255Z,2.88
2022-09-12T20:02:40.668Z,5.82
2022-09-12T20:06:22.849Z,11.15
2022-09-12T20:10:05.512Z,4.10
2022-09-12T20:13:47.988Z,3.88
2022-09-12T20:17:30.017Z,4.13
2022-09-12T20:21:20.926Z,3.17
2022-09-12T20:25:03.552Z,3.20
2022-09-12T20:28:45.746Z,3.28
2022-09-12T20:32:29.049Z,3.00
2022-09-12T20:36:16.469Z,4.40
2022-09-12T20:39:58.515Z,3.53
2022-09-12T20:43:41.108Z,2.60
2022-09-12T20:47:23.243Z,2.90
2022-09-12T20:51:05.985Z,3.47
2022-09-12T20:54:47.976Z,5.50
2022-09-12T20:58:30.054Z,4.72
2022-09-12T21:02:16.353Z,4.28
2022-09-12T21:05:58.868Z,3.10
2022-09-12T21:09:40.978Z,3.70
2022-09-12T21:13:22.976Z,2.65
2022-09-12T21:17:05.552Z,3.40
2022-09-12T21:20:55.424Z,3.55
2022-09-12T21:24:37.477Z,3.20
2022-09-12T21:28:19.816Z,3.42
2022-09-12T21:32:02.661Z,4.68
2022-09-12T21:35:45.138Z,3.40
2022-09-12T21:39:27.161Z,3.40
2022-09-12T21:43:12.497Z,4.25
2022-09-12T21:46:55.043Z,4.30
2022-09-12T21:50:37.005Z,5.53
2022-09-12T21:54:18.949Z,5.10
2022-09-12T21:58:03.952Z,4.65
2022-09-12T22:01:45.989Z,6.50
2022-09-12T22:05:30.036Z,6.00
2022-09-12T22:09:12.292Z,4.88
2022-09-12T22:12:54.635Z,5.10
2022-09-12T22:16:37.194Z,4.57
2022-09-12T22:20:19.233Z,3.22
2022-09-12T22:24:20.076Z,3.45
2022-09-12T22:28:02.417Z,4.55
2022-09-12T22:31:44.787Z,3.70
2022-09-12T22:35:26.760Z,5.13
2022-09-12T22:39:09.054Z,4.35
2022-09-12T22:42:55.152Z,4.55
2022-09-12T22:46:38.148Z,5.20
2022-09-12T22:50:20.259Z,4.47
2022-09-12T22:54:02.418Z,5.47
2022-09-12T22:57:44.513Z,4.72
2022-09-12T23:01:26.757Z,5.00
2022-09-12T23:05:09.205Z,3.83
2022-09-12T23:08:51.211Z,4.10
2022-09-12T23:12:33.172Z,4.63
2022-09-12T23:16:23.791Z,3.63
2022-09-12T23:20:06.549Z,4.82
2022-09-12T23:23:49.479Z,4.97
2022-09-12T23:27:31.557Z,4.63
2022-09-12T23:31:13.664Z,4.60
2022-09-12T23:34:55.673Z,5.75
2022-09-12T23:38:37.744Z,3.53
2022-09-12T23:42:19.788Z,4.25
2022-09-12T23:46:02.442Z,5.00
2022-09-12T23:49:45.882Z,6.90
2022-09-12T23:53:28.386Z,4.18
2022-09-12T23:57:10.382Z,6.15
